createdAt,value
2022-09-02T00:01:20.105Z,14.24
2022-09-02T00:03:47.449Z,14.23
2022-09-02T00:06:15.338Z,14.20
2022-09-02T00:08:43.159Z,14.16
2022-09-02T00:11:16.453Z,14.21
2022-09-02T00:13:43.813Z,14.05
2022-09-02T00:16:11.507Z,13.91
2022-09-02T00:18:39.591Z,14.01
2022-09-02T00:21:13.569Z,14.09
2022-09-02T00:23:42.182Z,14.15
2022-09-02T00:26:08.805Z,14.25
2022-09-02T00:28:35.522Z,14.23
2022-09-02T00:31:02.203Z,14.33
2022-09-02T00:33:28.994Z,14.32
2022-09-02T00:35:55.737Z,14.27
2022-09-02T00:38:22.268Z,14.37
2022-09-02T00:40:50.554Z,14.33
2022-09-02T00:43:43.583Z,14.19
2022-09-02T00:46:11.671Z,14.24
2022-09-02T00:48:43.564Z,14.28
2022-09-02T00:51:11.809Z,14.28
2022-09-02T00:53:41.101Z,14.27
2022-09-02T00:56:15.909Z,14.29
2022-09-02T00:58:43.353Z,14.44
2022-09-02T01:01:11.664Z,14.28
2022-09-02T01:03:40.410Z,14.12
2022-09-02T01:09:47.377Z,14.22
2022-09-02T01:12:16.246Z,14.26
2022-09-02T01:14:42.960Z,14.38
2022-09-02T01:17:09.716Z,14.06
2022-09-02T01:19:40.375Z,14.30
2022-09-02T01:22:17.764Z,14.31
2022-09-02T01:24:44.237Z,14.25
2022-09-02T01:27:15.449Z,14.45
2022-09-02T01:29:41.961Z,14.20
2022-09-02T01:32:08.611Z,14.38
2022-09-02T01:34:35.121Z,14.14
2022-09-02T01:37:01.653Z,14.00
2022-09-02T01:39:28.197Z,14.06
2022-09-02T01:41:54.729Z,14.04
2022-09-02T01:44:21.793Z,13.87
2022-09-02T01:46:48.345Z,13.83
2022-09-02T01:49:14.824Z,13.98
2022-09-02T01:51:41.383Z,13.85
2022-09-02T01:54:07.878Z,13.85
2022-09-02T01:56:34.425Z,13.85
2022-09-02T01:59:02.365Z,13.85
2022-09-02T02:01:29.560Z,13.76
2022-09-02T02:03:56.125Z,13.54
2022-09-02T02:06:22.935Z,13.34
2022-09-02T02:08:49.391Z,13.54
2022-09-02T02:11:24.196Z,13.45
2022-09-02T02:13:50.762Z,13.23
2022-09-02T02:16:17.393Z,13.24
2022-09-02T02:18:43.902Z,13.37
2022-09-02T02:21:11.376Z,13.28
2022-09-02T02:23:37.926Z,13.24
2022-09-02T02:26:04.481Z,13.16
2022-09-02T02:28:31.127Z,13.13
2022-09-02T02:30:59.968Z,13.18
2022-09-02T02:33:36.031Z,13.19
2022-09-02T02:36:05.206Z,13.00
2022-09-02T02:38:33.953Z,13.19
2022-09-02T02:41:02.037Z,13.17
2022-09-02T02:43:28.601Z,13.09
2022-09-02T02:45:55.108Z,13.05
2022-09-02T02:48:22.170Z,13.16
2022-09-02T02:50:48.722Z,13.05
2022-09-02T02:53:17.493Z,13.06
2022-09-02T02:55:44.898Z,13.34
2022-09-02T02:58:17.129Z,13.22
2022-09-02T03:00:46.218Z,13.13
2022-09-02T03:03:12.809Z,13.09
2022-09-02T03:05:40.039Z,13.15
2022-09-02T03:08:08.648Z,13.17
2022-09-02T03:10:36.468Z,13.11
2022-09-02T03:13:03.374Z,13.11
2022-09-02T03:15:30.261Z,13.09
2022-09-02T03:17:57.092Z,12.97
2022-09-02T03:20:24.914Z,13.02
2022-09-02T03:22:55.291Z,12.86
2022-09-02T03:25:23.195Z,12.93
2022-09-02T03:27:51.575Z,12.96
2022-09-02T03:30:25.193Z,12.85
2022-09-02T03:32:58.389Z,12.91
2022-09-02T03:35:28.451Z,12.87
2022-09-02T03:37:55.789Z,12.87
2022-09-02T03:40:26.410Z,12.84
2022-09-02T03:42:59.276Z,12.80
2022-09-02T03:45:26.794Z,12.74
2022-09-02T03:47:55.818Z,12.75
2022-09-02T03:50:30.120Z,12.77
2022-09-02T03:52:57.671Z,12.74
2022-09-02T03:55:24.526Z,12.64
2022-09-02T03:57:51.026Z,12.69
2022-09-02T04:00:20.539Z,12.72
2022-09-02T04:02:50.227Z,12.76
2022-09-02T04:05:17.711Z,12.72
2022-09-02T04:07:46.902Z,12.60
2022-09-02T04:10:14.561Z,12.82
2022-09-02T04:12:41.186Z,12.77
2022-09-02T04:15:09.823Z,12.76
2022-09-02T04:17:38.223Z,12.72
2022-09-02T04:20:07.166Z,12.64
2022-09-02T04:22:34.137Z,12.65
2022-09-02T04:25:00.647Z,12.75
2022-09-02T04:27:27.581Z,12.64
2022-09-02T04:29:54.116Z,12.49
2022-09-02T04:32:21.708Z,12.58
2022-09-02T04:34:49.853Z,12.63
2022-09-02T04:37:16.765Z,12.58
2022-09-02T04:39:43.318Z,12.58
2022-09-02T04:42:09.798Z,12.60
2022-09-02T04:44:36.462Z,12.70
2022-09-02T04:47:03.065Z,12.76
2022-09-02T04:49:32.110Z,12.70
2022-09-02T04:52:00.204Z,12.72
2022-09-02T04:54:27.199Z,12.72
2022-09-02T04:56:53.945Z,12.74
2022-09-02T04:59:21.296Z,12.66
2022-09-02T05:01:49.849Z,12.77
2022-09-02T05:04:16.660Z,12.75
2022-09-02T05:06:44.545Z,12.93
2022-09-02T05:09:11.633Z,12.78
2022-09-02T05:11:38.748Z,12.54
2022-09-02T05:14:07.127Z,12.58
2022-09-02T05:16:40.105Z,12.70
2022-09-02T05:19:09.696Z,12.70
2022-09-02T05:21:40.593Z,12.36
2022-09-02T05:24:07.108Z,12.67
2022-09-02T05:26:36.184Z,12.83
2022-09-02T05:29:06.963Z,12.91
2022-09-02T05:31:34.128Z,12.95
2022-09-02T05:34:00.796Z,12.73
2022-09-02T05:36:27.408Z,12.95
2022-09-02T05:38:54.397Z,12.92
2022-09-02T05:41:23.542Z,12.87
2022-09-02T05:43:52.474Z,12.91
2022-09-02T05:46:22.315Z,12.99
2022-09-02T05:49:17.702Z,13.08
2022-09-02T05:51:50.067Z,12.99
2022-09-02T05:54:24.109Z,12.86
2022-09-02T05:56:53.832Z,12.93
2022-09-02T05:59:22.190Z,12.90
2022-09-02T06:01:49.484Z,13.03
2022-09-02T06:04:17.187Z,12.73
2022-09-02T06:06:43.771Z,12.70
2022-09-02T06:09:12.779Z,12.71
2022-09-02T06:11:44.611Z,12.67
2022-09-02T06:14:13.961Z,12.84
2022-09-02T06:16:42.045Z,12.79
2022-09-02T06:19:09.115Z,12.83
2022-09-02T06:21:37.716Z,12.84
2022-09-02T06:24:08.850Z,13.24
2022-09-02T06:26:37.018Z,12.98
2022-09-02T06:29:04.987Z,13.22
2022-09-02T06:31:34.599Z,13.39
2022-09-02T06:34:01.428Z,13.54
2022-09-02T06:36:31.276Z,13.33
2022-09-02T06:39:00.190Z,13.43
2022-09-02T06:41:30.332Z,13.43
2022-09-02T06:44:00.093Z,13.68
2022-09-02T06:46:30.668Z,13.71
2022-09-02T06:48:57.529Z,13.74
2022-09-02T06:51:30.317Z,13.89
2022-09-02T06:53:57.052Z,13.86
2022-09-02T06:56:23.906Z,13.93
2022-09-02T06:58:50.598Z,14.13
2022-09-02T07:01:26.289Z,14.17
2022-09-02T07:04:11.567Z,14.26
2022-09-02T07:06:42.276Z,14.33
2022-09-02T07:09:11.542Z,14.70
2022-09-02T07:11:38.650Z,14.96
2022-09-02T07:14:05.433Z,15.51
2022-09-02T07:16:36.763Z,15.94
2022-09-02T07:19:05.635Z,16.72
2022-09-02T07:21:36.255Z,16.84
2022-09-02T07:24:03.145Z,16.64
2022-09-02T07:26:29.936Z,16.42
2022-09-02T07:28:56.553Z,16.48
2022-09-02T07:31:23.580Z,16.66
2022-09-02T07:33:50.756Z,17.24
2022-09-02T07:36:21.483Z,17.66
2022-09-02T07:38:48.242Z,18.36
2022-09-02T07:41:14.813Z,19.11
2022-09-02T07:43:41.394Z,19.78
2022-09-02T07:46:08.141Z,20.50
2022-09-02T07:48:34.920Z,20.47
2022-09-02T07:51:02.021Z,19.61
2022-09-02T07:53:29.179Z,19.68
2022-09-02T07:55:55.927Z,19.45
2022-09-02T07:58:23.666Z,18.70
2022-09-02T08:00:51.208Z,19.42
2022-09-02T08:03:17.942Z,19.92
2022-09-02T08:05:47.064Z,20.52
2022-09-02T08:08:15.967Z,21.19
2022-09-02T08:10:42.952Z,21.11
2022-09-02T08:13:10.515Z,21.11
2022-09-02T08:15:37.298Z,21.16
2022-09-02T08:18:05.012Z,21.70
2022-09-02T08:20:31.506Z,20.61
2022-09-02T08:23:10.652Z,19.84
2022-09-02T08:25:39.471Z,20.19
2022-09-02T08:28:05.967Z,20.28
2022-09-02T08:30:32.618Z,20.34
2022-09-02T08:32:59.276Z,21.05
2022-09-02T08:35:25.966Z,21.95
2022-09-02T08:37:52.506Z,21.38
2022-09-02T08:40:28.776Z,20.87
2022-09-02T08:42:56.459Z,21.27
2022-09-02T08:45:32.438Z,21.41
2022-09-02T08:48:12.805Z,21.61
2022-09-02T08:50:43.716Z,22.40
2022-09-02T08:53:19.227Z,22.14
2022-09-02T08:55:49.126Z,23.02
2022-09-02T08:58:18.931Z,23.90
2022-09-02T09:01:00.732Z,23.00
2022-09-02T09:03:37.143Z,22.71
2022-09-02T09:06:23.541Z,22.90
2022-09-02T09:09:17.534Z,22.36
2022-09-02T09:12:01.806Z,22.70
2022-09-02T09:14:52.629Z,23.39
2022-09-02T09:17:28.226Z,23.42
2022-09-02T09:19:59.046Z,23.86
2022-09-02T09:22:31.338Z,23.80
2022-09-02T09:24:58.739Z,24.06
2022-09-02T09:27:25.984Z,23.98
2022-09-02T09:29:53.335Z,24.59
2022-09-02T09:32:30.122Z,24.34
2022-09-02T09:35:03.517Z,24.37
2022-09-02T09:37:37.406Z,23.29
2022-09-02T09:40:20.530Z,23.29
2022-09-02T09:43:14.516Z,23.74
2022-09-02T09:45:51.723Z,24.01
2022-09-02T09:48:30.700Z,23.90
2022-09-02T09:50:57.226Z,23.17
2022-09-02T09:53:25.649Z,22.01
2022-09-02T09:55:56.805Z,23.01
2022-09-02T09:58:30.819Z,24.38
2022-09-02T10:01:00.529Z,23.79
2022-09-02T10:03:32.975Z,23.77
2022-09-02T10:06:18.343Z,22.63
2022-09-02T10:09:00.334Z,21.41
2022-09-02T10:11:29.675Z,22.51
2022-09-02T10:14:02.213Z,23.31
2022-09-02T10:16:37.712Z,23.80
2022-09-02T10:19:10.202Z,23.08
2022-09-02T10:22:04.400Z,22.72
2022-09-02T10:25:19.252Z,22.84
2022-09-02T10:28:14.151Z,22.79
2022-09-02T10:30:57.580Z,21.87
2022-09-02T10:33:44.591Z,21.38
2022-09-02T10:36:28.650Z,21.37
2022-09-02T10:39:04.290Z,20.83
2022-09-02T10:45:07.331Z,22.36
2022-09-02T10:47:38.510Z,23.23
2022-09-02T10:50:22.980Z,22.54
2022-09-02T10:53:17.248Z,22.50
2022-09-02T10:56:05.492Z,21.88
2022-09-02T10:58:55.882Z,22.07
2022-09-02T11:01:28.925Z,21.55
2022-09-02T11:04:22.641Z,21.09
2022-09-02T11:07:02.533Z,20.70
2022-09-02T11:09:50.441Z,20.22
2022-09-02T11:12:32.311Z,20.69
2022-09-02T11:15:20.162Z,20.25
2022-09-02T11:18:00.542Z,21.16
2022-09-02T11:20:38.850Z,20.61
2022-09-02T11:23:30.663Z,20.44
2022-09-02T11:26:10.705Z,20.38
2022-09-02T11:29:14.194Z,20.18
2022-09-02T11:31:44.390Z,20.26
2022-09-02T11:34:20.040Z,20.46
2022-09-02T11:36:46.686Z,20.13
2022-09-02T11:39:30.632Z,20.03
2022-09-02T11:42:00.213Z,20.27
2022-09-02T11:44:56.769Z,20.22
2022-09-02T11:47:27.510Z,20.02
2022-09-02T11:50:21.842Z,20.36
2022-09-02T11:52:54.206Z,20.13
2022-09-02T11:55:39.982Z,19.74
2022-09-02T11:58:06.587Z,19.57
2022-09-02T12:00:55.779Z,22.31
2022-09-02T12:03:46.648Z,23.37
2022-09-02T12:06:19.346Z,23.61
2022-09-02T12:08:46.860Z,22.82
2022-09-02T12:11:39.772Z,22.55
2022-09-02T12:14:09.987Z,21.74
2022-09-02T12:16:40.845Z,20.87
2022-09-02T12:19:10.669Z,20.81
2022-09-02T12:22:15.279Z,21.36
2022-09-02T12:25:26.992Z,21.75
2022-09-02T12:28:10.869Z,21.38
2022-09-02T12:31:02.079Z,21.48
2022-09-02T12:33:34.798Z,21.06
2022-09-02T12:36:04.757Z,21.43
2022-09-02T12:38:32.596Z,21.74
2022-09-02T12:41:04.956Z,21.24
2022-09-02T12:44:02.250Z,22.16
2022-09-02T12:46:48.471Z,22.70
2022-09-02T12:49:46.836Z,21.70
2022-09-02T12:52:36.195Z,21.16
2022-09-02T12:55:18.231Z,20.25
2022-09-02T12:57:48.332Z,20.51
2022-09-02T13:00:27.942Z,20.73
2022-09-02T13:03:14.204Z,21.20
2022-09-02T13:05:49.748Z,20.84
2022-09-02T13:08:51.038Z,20.83
2022-09-02T13:11:39.044Z,20.73
2022-09-02T13:14:27.264Z,21.25
2022-09-02T13:17:36.607Z,21.28
2022-09-02T13:20:20.076Z,21.28
2022-09-02T13:22:55.532Z,20.84
2022-09-02T13:25:46.377Z,21.02
2022-09-02T13:28:18.778Z,21.28
2022-09-02T13:31:22.202Z,21.12
2022-09-02T13:34:11.795Z,20.88
2022-09-02T13:36:44.748Z,20.63
2022-09-02T13:39:19.612Z,20.80
2022-09-02T13:41:47.454Z,20.28
2022-09-02T13:44:27.030Z,19.92
2022-09-02T13:47:02.397Z,20.61
2022-09-02T13:49:37.896Z,20.63
2022-09-02T13:52:11.807Z,20.78
2022-09-02T13:54:48.359Z,20.90
2022-09-02T13:57:21.484Z,20.80
2022-09-02T13:59:51.696Z,20.59
2022-09-02T14:02:35.752Z,20.46
2022-09-02T14:05:22.622Z,20.80
2022-09-02T14:07:53.372Z,20.41
2022-09-02T14:10:23.704Z,20.10
2022-09-02T14:12:51.338Z,20.35
2022-09-02T14:15:31.147Z,19.87
2022-09-02T14:18:30.868Z,19.96
2022-09-02T14:21:09.733Z,20.02
2022-09-02T14:23:40.453Z,19.71
2022-09-02T14:26:07.156Z,20.01
2022-09-02T14:28:35.510Z,19.97
2022-09-02T14:31:08.419Z,20.24
2022-09-02T14:33:43.368Z,20.30
2022-09-02T14:36:17.737Z,20.64
2022-09-02T14:38:47.023Z,19.65
2022-09-02T14:41:20.322Z,19.30
2022-09-02T14:43:50.397Z,19.73
2022-09-02T14:46:32.976Z,19.53
2022-09-02T14:48:59.416Z,19.86
2022-09-02T14:51:47.785Z,19.52
2022-09-02T14:54:37.631Z,19.34
2022-09-02T14:57:04.976Z,19.36
2022-09-02T14:59:31.563Z,19.44
2022-09-02T15:01:59.377Z,19.30
2022-09-02T15:04:26.881Z,19.04
2022-09-02T15:06:53.476Z,18.92
2022-09-02T15:09:20.168Z,19.13
2022-09-02T15:11:53.280Z,19.42
2022-09-02T15:14:19.787Z,19.06
2022-09-02T15:16:46.317Z,19.24
2022-09-02T15:19:12.844Z,19.33
2022-09-02T15:21:40.395Z,19.38
2022-09-02T15:24:07.001Z,19.33
2022-09-02T15:26:33.450Z,19.69
2022-09-02T15:28:59.920Z,19.85
2022-09-02T15:31:26.547Z,19.44
2022-09-02T15:33:53.137Z,19.52
2022-09-02T15:36:21.167Z,19.54
2022-09-02T15:38:47.668Z,19.80
2022-09-02T15:41:23.362Z,19.43
2022-09-02T15:43:53.744Z,19.61
2022-09-02T15:46:25.833Z,19.46
2022-09-02T15:48:53.334Z,19.56
2022-09-02T15:51:22.766Z,19.79
2022-09-02T15:54:05.132Z,19.60
2022-09-02T15:56:33.373Z,19.69
2022-09-02T15:59:02.166Z,19.75
2022-09-02T16:01:34.110Z,19.81
2022-09-02T16:04:02.450Z,19.38
2022-09-02T16:06:29.771Z,19.44
2022-09-02T16:08:56.569Z,19.57
2022-09-02T16:11:23.793Z,19.64
2022-09-02T16:13:50.890Z,19.81
2022-09-02T16:16:17.792Z,19.87
2022-09-02T16:18:45.252Z,19.78
2022-09-02T16:21:12.997Z,19.97
2022-09-02T16:23:39.679Z,19.84
2022-09-02T16:26:22.923Z,19.84
2022-09-02T16:28:51.132Z,19.83
2022-09-02T16:31:20.013Z,19.78
2022-09-02T16:33:55.706Z,19.77
2022-09-02T16:36:23.902Z,19.73
2022-09-02T16:38:53.450Z,19.61
2022-09-02T16:41:28.263Z,19.45
2022-09-02T16:43:57.093Z,19.50
2022-09-02T16:46:24.935Z,19.12
2022-09-02T16:48:52.044Z,19.18
2022-09-02T16:51:18.913Z,19.11
2022-09-02T16:53:46.413Z,19.02
2022-09-02T16:56:14.322Z,19.38
2022-09-02T16:58:41.579Z,19.32
2022-09-02T17:01:13.817Z,19.21
2022-09-02T17:03:41.843Z,19.21
2022-09-02T17:06:09.068Z,18.89
2022-09-02T17:08:35.533Z,19.22
2022-09-02T17:11:22.315Z,19.01
2022-09-02T17:13:55.873Z,18.91
2022-09-02T17:16:25.006Z,18.73
2022-09-02T17:18:52.145Z,18.66
2022-09-02T17:21:25.360Z,18.79
2022-09-02T17:23:52.310Z,18.59
2022-09-02T17:26:21.544Z,18.66
2022-09-02T17:28:48.770Z,18.86
2022-09-02T17:31:22.009Z,18.74
2022-09-02T17:33:49.660Z,18.76
2022-09-02T17:36:16.773Z,18.41
2022-09-02T17:38:43.590Z,18.25
2022-09-02T17:41:28.960Z,18.42
2022-09-02T17:43:55.528Z,18.45
2022-09-02T17:46:22.319Z,18.35
2022-09-02T17:49:15.457Z,18.21
2022-09-02T17:51:35.685Z,18.25
2022-09-02T17:54:02.783Z,18.22
2022-09-02T17:56:32.213Z,18.22
2022-09-02T17:59:27.788Z,18.18
2022-09-02T18:02:12.733Z,18.19
2022-09-02T18:04:42.029Z,18.00
2022-09-02T18:07:28.507Z,18.07
2022-09-02T18:09:55.424Z,18.15
2022-09-02T18:12:21.954Z,18.03
2022-09-02T18:14:54.615Z,17.87
2022-09-02T18:17:40.414Z,17.90
2022-09-02T18:20:10.526Z,17.90
2022-09-02T18:22:49.791Z,17.85
2022-09-02T18:25:31.541Z,17.84
2022-09-02T18:28:06.874Z,17.69
2022-09-02T18:30:48.994Z,17.65
2022-09-02T18:33:56.207Z,17.34
2022-09-02T18:36:48.972Z,17.44
2022-09-02T18:39:21.234Z,17.19
2022-09-02T18:42:26.227Z,17.22
2022-09-02T18:45:04.989Z,17.43
2022-09-02T18:47:36.446Z,17.20
2022-09-02T18:50:05.984Z,17.35
2022-09-02T18:52:34.558Z,17.30
2022-09-02T18:55:09.944Z,17.22
2022-09-02T18:57:43.817Z,17.25
2022-09-02T19:00:13.380Z,17.18
2022-09-02T19:03:02.413Z,17.07
2022-09-02T19:05:31.196Z,16.99
2022-09-02T19:08:27.098Z,17.14
2022-09-02T19:11:01.791Z,17.11
2022-09-02T19:13:30.073Z,16.96
2022-09-02T19:16:04.118Z,17.00
2022-09-02T19:18:31.544Z,16.76
2022-09-02T19:20:58.849Z,16.84
2022-09-02T19:23:26.880Z,16.85
2022-09-02T19:25:53.621Z,16.86
2022-09-02T19:28:22.053Z,16.76
2022-09-02T19:30:51.023Z,16.83
2022-09-02T19:33:17.636Z,16.80
2022-09-02T19:35:49.085Z,16.80
2022-09-02T19:38:18.615Z,16.63
2022-09-02T19:40:49.363Z,16.61
2022-09-02T19:43:16.726Z,16.63
2022-09-02T19:45:44.156Z,16.66
2022-09-02T19:48:11.513Z,16.71
2022-09-02T19:50:43.557Z,16.66
2022-09-02T19:53:16.219Z,16.61
2022-09-02T19:55:42.972Z,16.49
2022-09-02T19:58:09.507Z,16.59
2022-09-02T20:00:36.171Z,16.66
2022-09-02T20:03:03.281Z,16.56
2022-09-02T20:05:29.891Z,16.53
2022-09-02T20:07:56.520Z,16.40
2022-09-02T20:10:28.069Z,16.39
2022-09-02T20:12:56.916Z,16.24
2022-09-02T20:15:23.465Z,16.26
2022-09-02T20:17:50.096Z,16.12
2022-09-02T20:20:19.366Z,16.14
2022-09-02T20:22:55.178Z,16.12
2022-09-02T20:25:31.203Z,16.01
2022-09-02T20:28:16.227Z,16.02
2022-09-02T20:30:46.901Z,16.05
2022-09-02T20:33:19.570Z,16.08
2022-09-02T20:35:52.187Z,15.93
2022-09-02T20:38:46.081Z,15.82
2022-09-02T20:41:47.056Z,15.91
2022-09-02T20:44:38.579Z,15.87
2022-09-02T20:47:27.598Z,15.92
2022-09-02T20:50:02.939Z,15.87
2022-09-02T20:52:44.545Z,15.76
2022-09-02T20:55:25.904Z,15.81
2022-09-02T20:57:52.427Z,15.62
2022-09-02T21:00:22.703Z,15.77
2022-09-02T21:02:55.526Z,15.72
2022-09-02T21:05:43.834Z,15.81
2022-09-02T21:08:24.395Z,15.65
2022-09-02T21:11:01.215Z,15.63
2022-09-02T21:13:49.989Z,15.68
2022-09-02T21:16:34.592Z,15.73
2022-09-02T21:19:29.412Z,15.52
2022-09-02T21:22:03.311Z,15.50
2022-09-02T21:24:39.653Z,15.48
2022-09-02T21:27:19.481Z,15.45
2022-09-02T21:29:53.725Z,15.38
2022-09-02T21:32:32.651Z,15.51
2022-09-02T21:35:17.294Z,15.47
2022-09-02T21:37:45.195Z,15.35
2022-09-02T21:40:19.132Z,15.37
2022-09-02T21:43:27.085Z,15.35
2022-09-02T21:45:56.421Z,15.24
2022-09-02T21:48:32.210Z,15.22
2022-09-02T21:51:01.019Z,15.27
2022-09-02T21:53:53.765Z,15.22
2022-09-02T21:56:41.260Z,15.16
2022-09-02T21:59:32.273Z,15.15
2022-09-02T22:02:10.411Z,15.09
2022-09-02T22:04:48.697Z,14.97
2022-09-02T22:07:25.647Z,14.96
2022-09-02T22:10:19.666Z,14.92
2022-09-02T22:12:52.525Z,14.93
2022-09-02T22:15:35.101Z,15.01
2022-09-02T22:18:10.947Z,14.82
2022-09-02T22:20:42.302Z,14.76
2022-09-02T22:23:23.381Z,14.79
2022-09-02T22:25:52.736Z,14.74
2022-09-02T22:28:39.295Z,14.83
2022-09-02T22:31:12.673Z,14.74
2022-09-02T22:33:51.332Z,14.64
2022-09-02T22:36:49.638Z,14.61
2022-09-02T22:39:17.477Z,14.64
2022-09-02T22:41:55.523Z,14.69
2022-09-02T22:44:58.719Z,14.54
2022-09-02T22:47:43.912Z,14.57
2022-09-02T22:50:34.718Z,14.57
2022-09-02T22:53:01.288Z,14.57
2022-09-02T22:55:38.258Z,14.44
2022-09-02T22:58:16.038Z,14.38
2022-09-02T23:00:51.202Z,14.33
2022-09-02T23:03:36.551Z,14.22
2022-09-02T23:06:14.871Z,14.02
2022-09-02T23:08:43.849Z,14.06
2022-09-02T23:11:30.857Z,13.99
2022-09-02T23:14:35.545Z,13.90
2022-09-02T23:17:07.917Z,13.97
2022-09-02T23:19:56.247Z,14.05
2022-09-02T23:22:41.900Z,14.01
2022-09-02T23:25:37.678Z,13.76
2022-09-02T23:28:15.427Z,13.78
2022-09-02T23:30:52.550Z,13.97
2022-09-02T23:33:38.973Z,13.89
2022-09-02T23:36:21.508Z,13.86
2022-09-02T23:39:06.092Z,13.87
2022-09-02T23:41:36.165Z,13.70
2022-09-02T23:44:06.768Z,13.77
2022-09-02T23:46:39.429Z,13.76
2022-09-02T23:49:36.228Z,13.73
2022-09-02T23:52:21.977Z,13.52
2022-09-02T23:55:19.509Z,13.66
2022-09-02T23:58:23.017Z,13.63
